createdAt,value
2023-05-02T00:00:41.923Z,13.869565217391305
2023-05-02T00:07:03.927Z,12.224080267558529
2023-05-02T00:13:23.258Z,13.929765886287626
2023-05-02T00:19:42.943Z,16.367892976588628
2023-05-02T00:28:58.029Z,14.22742474916388
2023-05-02T00:35:18.003Z,15.23076923076923
2023-05-02T00:41:37.353Z,12.62876254180602
2023-05-02T00:47:57.431Z,14.364548494983278
2023-05-02T00:54:17.526Z,15.722408026755852
2023-05-02T01:00:37.617Z,13.25752508361204
2023-05-02T01:13:53.233Z,12.919732441471572
2023-05-02T01:20:12.700Z,12.02675585284281
2023-05-02T01:32:15.926Z,12.2876254180602
2023-05-02T01:38:35.791Z,10.665551839464882
2023-05-02T01:44:55.279Z,12.354515050167224
2023-05-02T01:51:15.020Z,8.42809364548495
2023-05-02T02:03:10.846Z,7.792642140468227
2023-05-02T02:09:31.784Z,5.1003344481605355
2023-05-02T02:19:17.025Z,0.35451505016722407
2023-05-02T02:25:36.158Z,0.6956521739130435
2023-05-02T02:37:50.461Z,0.28762541806020064
2023-05-02T02:44:10.210Z,0.6956521739130435
2023-05-02T02:50:30.253Z,0.26755852842809363
2023-05-02T02:56:50.345Z,1.3879598662207357
2023-05-02T03:03:10.393Z,0.8862876254180602
2023-05-02T03:09:30.099Z,1.62876254180602
2023-05-02T03:16:49.621Z,2.2642140468227425
2023-05-02T03:23:08.946Z,2.6387959866220734
2023-05-02T03:29:28.024Z,2.9163879598662206
2023-05-02T03:40:58.334Z,3.280936454849498
2023-05-02T03:48:22.420Z,3.79933110367893
2023-05-02T03:54:42.243Z,5.45819397993311
2023-05-02T04:01:03.489Z,5.093645484949833
2023-05-02T04:07:23.800Z,4.197324414715719
2023-05-02T04:13:43.877Z,4.304347826086956
2023-05-02T04:20:05.566Z,4.157190635451505
2023-05-02T04:26:28.302Z,6.892976588628763
2023-05-02T04:35:45.028Z,4.046822742474917
2023-05-02T04:42:07.277Z,4.959866220735786
2023-05-02T04:53:02.070Z,3.4648829431438126
2023-05-02T05:03:46.216Z,3.0133779264214047
2023-05-02T05:10:08.559Z,4.508361204013378
2023-05-02T05:16:30.820Z,4.39799331103679
2023-05-02T05:22:52.385Z,3.468227424749164
2023-05-02T05:29:14.939Z,4.832775919732441
2023-05-02T05:35:36.684Z,5.006688963210703
2023-05-02T05:42:00.887Z,3.7959866220735785
2023-05-02T05:48:24.598Z,3.157190635451505
2023-05-02T05:54:48.455Z,3.5217391304347827
2023-05-02T06:02:32.323Z,3.5451505016722407
2023-05-02T06:08:55.967Z,2.8662207357859533
2023-05-02T06:28:27.774Z,3.5752508361204014
2023-05-02T06:34:51.911Z,3.387959866220736
2023-05-02T06:41:17.298Z,2.3979933110367893
2023-05-02T06:47:42.237Z,2.6387959866220734
2023-05-02T06:54:05.352Z,1.9565217391304348
2023-05-02T07:00:30.121Z,2.254180602006689
2023-05-02T07:06:51.515Z,3.468227424749164
2023-05-02T07:13:53.815Z,2.0267558528428093
2023-05-02T07:20:15.287Z,3.3946488294314383
2023-05-02T07:26:38.863Z,3.25752508361204
2023-05-02T07:33:00.984Z,2.6956521739130435
2023-05-02T07:44:06.917Z,2.74247491638796
2023-05-02T07:50:28.909Z,2.2876254180602005
2023-05-02T07:56:50.778Z,3.190635451505017
2023-05-02T08:08:09.397Z,2.688963210702341
2023-05-02T08:14:30.899Z,0.9966555183946488
2023-05-02T08:20:52.171Z,3.0100334448160537
2023-05-02T08:32:17.741Z,2.4983277591973243
2023-05-02T08:38:39.185Z,2.297658862876254
2023-05-02T08:45:01.383Z,3.157190635451505
2023-05-02T09:01:20.831Z,1.7525083612040133
2023-05-02T09:07:41.703Z,1.5250836120401339
2023-05-02T09:14:03.699Z,2.05685618729097
2023-05-02T09:20:25.744Z,1.7157190635451505
2023-05-02T09:26:46.543Z,1.2976588628762542
2023-05-02T09:33:06.794Z,2.234113712374582
2023-05-02T09:39:26.613Z,2.301003344481605
2023-05-02T09:55:54.854Z,0.8963210702341137
2023-05-02T10:02:15.008Z,1.6722408026755853
2023-05-02T10:08:34.491Z,3.8127090301003346
2023-05-02T10:14:54.073Z,1.7525083612040133
2023-05-02T10:21:16.381Z,1.1070234113712374
2023-05-02T10:27:36.069Z,1.3043478260869565
2023-05-02T10:33:56.142Z,0.8929765886287625
2023-05-02T10:40:16.349Z,1.1505016722408026
2023-05-02T11:12:31.259Z,1.100334448160535
2023-05-02T11:23:13.235Z,1.1839464882943145
2023-05-02T11:29:35.063Z,0.9230769230769231
2023-05-02T11:35:57.362Z,1.5451505016722409
2023-05-02T11:42:19.317Z,1.4581939799331103
2023-05-02T11:48:40.818Z,1.0535117056856187
2023-05-02T11:58:25.371Z,1.4615384615384615
2023-05-02T12:04:45.473Z,0.9565217391304348
2023-05-02T12:20:35.498Z,1.6521739130434783
2023-05-02T12:32:39.925Z,1.0301003344481605
2023-05-02T12:44:56.983Z,1.6588628762541806
2023-05-02T12:51:17.777Z,1.6187290969899666
2023-05-02T12:57:37.734Z,1.3678929765886287
2023-05-02T13:03:57.995Z,0.7090301003344481
2023-05-02T13:10:18.520Z,1.4448160535117056
2023-05-02T13:19:26.641Z,7.762541806020067
2023-05-02T13:25:46.852Z,2.749163879598662
2023-05-02T13:34:26.844Z,17.096989966555185
2023-05-02T13:40:47.009Z,2.0066889632107023
2023-05-02T13:47:06.733Z,1.1505016722408026
2023-05-02T13:55:05.738Z,1.434782608695652
2023-05-02T14:01:26.072Z,2.2642140468227425
2023-05-02T14:07:46.714Z,1.5919732441471572
2023-05-02T14:14:07.532Z,1.3043478260869565
2023-05-02T14:20:29.625Z,1.2408026755852843
2023-05-02T14:26:51.725Z,1.8093645484949832
2023-05-02T14:33:13.544Z,1.1137123745819397
2023-05-02T14:39:55.128Z,0.7892976588628763
2023-05-02T14:46:15.911Z,1.665551839464883
2023-05-02T14:52:36.027Z,1.8695652173913044
2023-05-02T14:58:57.066Z,1.2775919732441472
2023-05-02T15:05:18.069Z,1.6688963210702341
2023-05-02T15:11:37.927Z,1.8327759197324414
2023-05-02T15:17:58.653Z,0.9364548494983278
2023-05-02T15:24:19.515Z,1.2240802675585285
2023-05-02T15:36:18.988Z,1.1973244147157192
2023-05-02T15:42:39.811Z,1.8127090301003344
2023-05-02T15:48:59.719Z,1.6956521739130435
2023-05-02T15:55:19.763Z,1.2809364548494984
2023-05-02T16:01:40.910Z,2.468227424749164
2023-05-02T16:14:11.514Z,2.100334448160535
2023-05-02T16:25:59.754Z,2.1337792642140467
2023-05-02T16:32:30.855Z,2.0334448160535117
2023-05-02T16:39:51.082Z,1.9966555183946488
2023-05-02T16:46:13.176Z,2.1638795986622075
2023-05-02T16:52:34.451Z,1.0635451505016722
2023-05-02T16:58:55.683Z,1.3377926421404682
2023-05-02T17:06:36.199Z,3.317725752508361
2023-05-02T17:13:01.089Z,2.270903010033445
2023-05-02T17:23:23.994Z,1.3411371237458194
2023-05-02T17:29:53.229Z,0.9230769230769231
2023-05-02T17:36:18.743Z,1.2274247491638797
2023-05-02T17:42:42.326Z,1.2173913043478262
2023-05-02T17:49:05.829Z,0.8963210702341137
2023-05-02T17:55:51.753Z,1.0769230769230769
2023-05-02T18:02:22.004Z,0.7558528428093646
2023-05-02T18:08:44.428Z,1.1705685618729098
2023-05-02T18:15:07.572Z,1.0735785953177257
2023-05-02T18:25:23.360Z,1.0066889632107023
2023-05-02T18:37:08.629Z,0.9163879598662207
2023-05-02T18:47:19.175Z,0.7558528428093646
2023-05-02T18:56:21.129Z,0.8729096989966555
2023-05-02T19:02:42.412Z,1.3010033444816054
2023-05-02T19:09:04.676Z,1.3444816053511706
2023-05-02T19:15:29.077Z,1.3846153846153846
2023-05-02T19:23:40.685Z,1.3645484949832776
2023-05-02T19:30:02.068Z,1.0836120401337792
2023-05-02T19:36:30.769Z,1.0969899665551839
2023-05-02T19:42:55.747Z,1.4280936454849498
2023-05-02T19:53:23.310Z,1.9096989966555185
2023-05-02T19:59:43.640Z,1.411371237458194
2023-05-02T20:10:27.716Z,1.839464882943144
2023-05-02T20:21:08.723Z,1.4548494983277591
2023-05-02T20:27:38.599Z,2.0066889632107023
2023-05-02T20:34:00.324Z,1.6889632107023411
2023-05-02T20:45:31.711Z,1.0836120401337792
2023-05-02T20:51:52.832Z,1.7826086956521738
2023-05-02T20:58:14.483Z,1.3779264214046822
2023-05-02T21:04:35.216Z,3.160535117056856
2023-05-02T21:13:38.606Z,1.5953177257525084
2023-05-02T21:20:03.430Z,1.1839464882943145
2023-05-02T21:26:25.005Z,1.0769230769230769
2023-05-02T21:36:37.805Z,0.7959866220735786
2023-05-02T21:42:56.240Z,1.4414715719063544
2023-05-02T21:49:18.046Z,1.2073578595317727
2023-05-02T21:55:42.569Z,0.7224080267558528
2023-05-02T22:02:12.407Z,1.4080267558528428
2023-05-02T22:10:50.866Z,1.4682274247491638
2023-05-02T22:17:14.500Z,1.645484949832776
2023-05-02T22:23:39.270Z,2.0635451505016724
2023-05-02T22:30:01.606Z,2.0133779264214047
2023-05-02T22:36:22.827Z,2.100334448160535
2023-05-02T22:42:43.938Z,1.6153846153846154
2023-05-02T22:49:03.805Z,1.6020066889632107
2023-05-02T22:55:24.985Z,1.9531772575250836
2023-05-02T23:01:45.393Z,2.331103678929766
2023-05-02T23:08:05.020Z,2.321070234113712
2023-05-02T23:24:29.779Z,1.879598662207358
2023-05-02T23:30:49.108Z,1.2107023411371238
2023-05-02T23:37:09.478Z,2.140468227424749
2023-05-02T23:43:29.573Z,0.802675585284281
2023-05-02T23:55:59.375Z,1.3846153846153846
